ENT77S EPRZ-EPSC
Flight info
| Callsign | ENT77S |
|---|---|
| Flight time | 1h 1m |
| Altitude | 34000 |
| Route | ETITI L981 ADVAB L619 DENKO L996 XERBI DCT ZAWIK |
| Aircraft | B738/M-SDE2E3FGHIRWXY/LB1 |
Departure
| Time | 2026-04-26 18:09 |
|---|---|
| Airport | Rzeszów-Jasionka Airport (EPRZ) |
Arrival
| Time | 2026-04-26 19:10 |
|---|---|
| Airport | Solidarity Szczecin–Goleniów Airport (EPSC) |
| Time | Latitude | Longitude | Altitude | Speed | Heading |
|---|---|---|---|---|---|
| 2026-04-26 17:38 | 50.11410 | 22.02535 | 682 ft | 0 kts | 1° |
| 2026-04-26 18:00 | 50.11386 | 22.02533 | 683 ft | 4 kts | 4° |
| 2026-04-26 18:00 | 50.11360 | 22.02529 | 684 ft | 4 kts | 12° |
| 2026-04-26 18:00 | 50.11335 | 22.02516 | 685 ft | 4 kts | 37° |
| 2026-04-26 18:01 | 50.11323 | 22.02492 | 683 ft | 1 kts | 91° |
| 2026-04-26 18:01 | 50.11323 | 22.02491 | 690 ft | 0 kts | 91° |
| 2026-04-26 18:03 | 50.11323 | 22.02492 | 690 ft | 0 kts | 91° |
| 2026-04-26 18:03 | 50.11323 | 22.02513 | 683 ft | 4 kts | 91° |
| 2026-04-26 18:03 | 50.11322 | 22.02596 | 690 ft | 10 kts | 90° |
| 2026-04-26 18:04 | 50.11312 | 22.02714 | 690 ft | 11 kts | 122° |
| 2026-04-26 18:04 | 50.11240 | 22.02744 | 689 ft | 11 kts | 181° |
| 2026-04-26 18:04 | 50.11164 | 22.02742 | 691 ft | 11 kts | 181° |
| 2026-04-26 18:05 | 50.11006 | 22.02750 | 691 ft | 12 kts | 150° |
| 2026-04-26 18:05 | 50.10983 | 22.02872 | 691 ft | 14 kts | 92° |
| 2026-04-26 18:05 | 50.10982 | 22.03056 | 688 ft | 21 kts | 90° |
| 2026-04-26 18:05 | 50.10979 | 22.03326 | 683 ft | 29 kts | 91° |
| 2026-04-26 18:06 | 50.10974 | 22.03677 | 685 ft | 36 kts | 91° |
| 2026-04-26 18:06 | 50.10968 | 22.04087 | 681 ft | 38 kts | 91° |
| 2026-04-26 18:06 | 50.10963 | 22.04422 | 678 ft | 19 kts | 92° |
| 2026-04-26 18:06 | 50.10950 | 22.04513 | 679 ft | 10 kts | 112° |
| 2026-04-26 18:07 | 50.10957 | 22.04557 | 669 ft | 2 kts | 323° |
| 2026-04-26 18:07 | 50.10959 | 22.04538 | 679 ft | 0 kts | 274° |
| 2026-04-26 18:08 | 50.10965 | 22.04386 | 678 ft | 44 kts | 272° |
| 2026-04-26 18:08 | 50.10972 | 22.03902 | 682 ft | 90 kts | 271° |
| 2026-04-26 18:08 | 50.11000 | 22.02081 | 716 ft | 159 kts | 272° |
| 2026-04-26 18:08 | 50.11017 | 22.00871 | 1022 ft | 166 kts | 273° |
| 2026-04-26 18:09 | 50.11043 | 21.99130 | 1956 ft | 156 kts | 276° |
| 2026-04-26 18:09 | 50.11057 | 21.97450 | 2743 ft | 155 kts | 278° |
| 2026-04-26 18:09 | 50.11074 | 21.95776 | 3530 ft | 153 kts | 278° |
| 2026-04-26 18:09 | 50.11106 | 21.94095 | 4168 ft | 161 kts | 284° |
| 2026-04-26 18:10 | 50.11614 | 21.92447 | 4431 ft | 181 kts | 309° |
| 2026-04-26 18:10 | 50.12368 | 21.90705 | 4628 ft | 206 kts | 306° |
| 2026-04-26 18:10 | 50.13180 | 21.88749 | 4837 ft | 230 kts | 305° |
| 2026-04-26 18:10 | 50.14063 | 21.86588 | 5473 ft | 240 kts | 305° |
| 2026-04-26 18:11 | 50.14959 | 21.84375 | 6319 ft | 242 kts | 304° |
| 2026-04-26 18:11 | 50.15859 | 21.82140 | 7129 ft | 245 kts | 305° |
| 2026-04-26 18:11 | 50.16770 | 21.79890 | 7954 ft | 246 kts | 306° |
| 2026-04-26 18:11 | 50.17717 | 21.77648 | 8761 ft | 248 kts | 307° |
| 2026-04-26 18:12 | 50.18679 | 21.75401 | 9599 ft | 250 kts | 308° |
| 2026-04-26 18:12 | 50.19651 | 21.73128 | 10375 ft | 253 kts | 308° |
| 2026-04-26 18:12 | 50.20663 | 21.70770 | 10697 ft | 273 kts | 308° |
| 2026-04-26 18:12 | 50.21764 | 21.68204 | 10884 ft | 295 kts | 308° |
| 2026-04-26 18:13 | 50.22944 | 21.65441 | 11067 ft | 315 kts | 308° |
| 2026-04-26 18:13 | 50.24179 | 21.62538 | 11519 ft | 325 kts | 307° |
| 2026-04-26 18:13 | 50.25419 | 21.59604 | 12209 ft | 328 kts | 307° |
| 2026-04-26 18:13 | 50.26266 | 21.57595 | 12793 ft | 327 kts | 307° |
| 2026-04-26 18:14 | 50.27922 | 21.53660 | 13944 ft | 327 kts | 308° |
| 2026-04-26 18:14 | 50.29172 | 21.50689 | 14682 ft | 328 kts | 308° |
| 2026-04-26 18:14 | 50.30433 | 21.47692 | 15412 ft | 330 kts | 308° |
| 2026-04-26 18:14 | 50.31696 | 21.44687 | 16137 ft | 332 kts | 308° |
| 2026-04-26 18:15 | 50.32966 | 21.41664 | 16862 ft | 333 kts | 308° |
| 2026-04-26 18:15 | 50.34241 | 21.38624 | 17573 ft | 335 kts | 308° |
| 2026-04-26 18:15 | 50.35528 | 21.35553 | 18276 ft | 337 kts | 308° |
| 2026-04-26 18:15 | 50.36821 | 21.32466 | 18898 ft | 340 kts | 307° |
| 2026-04-26 18:16 | 50.38102 | 21.29402 | 19478 ft | 342 kts | 307° |
| 2026-04-26 18:16 | 50.40729 | 21.23109 | 20497 ft | 349 kts | 307° |
| 2026-04-26 18:16 | 50.42066 | 21.19902 | 20982 ft | 353 kts | 307° |
| 2026-04-26 18:17 | 50.43414 | 21.16662 | 21547 ft | 355 kts | 306° |
| 2026-04-26 18:17 | 50.44765 | 21.13411 | 22102 ft | 357 kts | 306° |
| 2026-04-26 18:17 | 50.46126 | 21.10131 | 22626 ft | 360 kts | 306° |
| 2026-04-26 18:17 | 50.47493 | 21.06833 | 23121 ft | 362 kts | 306° |
| 2026-04-26 18:18 | 50.48862 | 21.03528 | 23612 ft | 365 kts | 306° |
| 2026-04-26 18:18 | 50.50268 | 21.00126 | 24050 ft | 368 kts | 306° |
| 2026-04-26 18:18 | 50.51664 | 20.96747 | 24450 ft | 370 kts | 305° |
| 2026-04-26 18:18 | 50.53052 | 20.93380 | 24861 ft | 372 kts | 305° |
| 2026-04-26 18:19 | 50.54463 | 20.89954 | 25241 ft | 374 kts | 305° |
| 2026-04-26 18:19 | 50.55885 | 20.86499 | 25568 ft | 377 kts | 305° |
| 2026-04-26 18:19 | 50.57318 | 20.83010 | 25861 ft | 382 kts | 304° |
| 2026-04-26 18:19 | 50.58763 | 20.79488 | 26231 ft | 384 kts | 304° |
| 2026-04-26 18:20 | 50.60213 | 20.75949 | 26617 ft | 385 kts | 304° |
| 2026-04-26 18:20 | 50.61667 | 20.72395 | 26978 ft | 387 kts | 304° |
| 2026-04-26 18:20 | 50.63129 | 20.68817 | 27320 ft | 389 kts | 304° |
| 2026-04-26 18:20 | 50.64105 | 20.66427 | 27543 ft | 391 kts | 304° |
| 2026-04-26 18:21 | 50.66059 | 20.61632 | 27979 ft | 394 kts | 304° |
| 2026-04-26 18:21 | 50.67543 | 20.57986 | 28380 ft | 394 kts | 304° |
| 2026-04-26 18:21 | 50.69017 | 20.54357 | 28908 ft | 391 kts | 304° |
| 2026-04-26 18:21 | 50.70461 | 20.50797 | 29530 ft | 388 kts | 304° |
| 2026-04-26 18:22 | 50.71911 | 20.47217 | 29979 ft | 387 kts | 304° |
| 2026-04-26 18:22 | 50.73363 | 20.43629 | 30277 ft | 389 kts | 303° |
| 2026-04-26 18:22 | 50.74826 | 20.40010 | 30590 ft | 390 kts | 303° |
| 2026-04-26 18:22 | 50.76286 | 20.36394 | 30765 ft | 389 kts | 303° |
| 2026-04-26 18:23 | 50.77736 | 20.32795 | 30951 ft | 387 kts | 303° |
| 2026-04-26 18:23 | 50.79176 | 20.29216 | 31135 ft | 385 kts | 303° |
| 2026-04-26 18:23 | 50.80611 | 20.25646 | 31327 ft | 384 kts | 303° |
| 2026-04-26 18:23 | 50.82043 | 20.22078 | 31515 ft | 384 kts | 303° |
| 2026-04-26 18:24 | 50.83472 | 20.18514 | 31703 ft | 383 kts | 303° |
| 2026-04-26 18:24 | 50.84896 | 20.14955 | 31906 ft | 382 kts | 303° |
| 2026-04-26 18:24 | 50.86317 | 20.11400 | 32083 ft | 381 kts | 303° |
| 2026-04-26 18:24 | 50.87733 | 20.07854 | 32292 ft | 381 kts | 302° |
| 2026-04-26 18:25 | 50.89130 | 20.04350 | 32492 ft | 381 kts | 302° |
| 2026-04-26 18:25 | 50.90541 | 20.00804 | 32702 ft | 380 kts | 302° |
| 2026-04-26 18:25 | 50.91952 | 19.97255 | 32911 ft | 380 kts | 302° |
| 2026-04-26 18:25 | 50.93383 | 19.93718 | 33134 ft | 383 kts | 305° |
| 2026-04-26 18:26 | 50.95102 | 19.90473 | 33385 ft | 385 kts | 312° |
| 2026-04-26 18:26 | 50.96940 | 19.87389 | 33695 ft | 385 kts | 311° |
| 2026-04-26 18:26 | 50.98770 | 19.84296 | 34066 ft | 383 kts | 311° |
| 2026-04-26 18:26 | 51.00591 | 19.81199 | 34232 ft | 386 kts | 311° |
| 2026-04-26 18:27 | 51.04266 | 19.74910 | 34225 ft | 388 kts | 311° |
| 2026-04-26 18:27 | 51.07889 | 19.68678 | 34244 ft | 384 kts | 311° |
| 2026-04-26 18:28 | 51.11503 | 19.62438 | 34255 ft | 383 kts | 311° |
| 2026-04-26 18:28 | 51.15107 | 19.56200 | 34248 ft | 382 kts | 311° |
| 2026-04-26 18:29 | 51.18697 | 19.49969 | 34247 ft | 381 kts | 311° |
| 2026-04-26 18:29 | 51.22257 | 19.43776 | 34249 ft | 380 kts | 311° |
| 2026-04-26 18:30 | 51.25830 | 19.37546 | 34235 ft | 380 kts | 310° |
| 2026-04-26 18:30 | 51.29405 | 19.31296 | 34255 ft | 380 kts | 310° |
| 2026-04-26 18:31 | 51.32955 | 19.25073 | 34255 ft | 382 kts | 310° |
| 2026-04-26 18:31 | 51.36537 | 19.18780 | 34256 ft | 383 kts | 310° |
| 2026-04-26 18:32 | 51.40135 | 19.12442 | 34254 ft | 385 kts | 310° |
| 2026-04-26 18:32 | 51.43747 | 19.06065 | 34251 ft | 386 kts | 310° |
| 2026-04-26 18:33 | 51.47368 | 18.99655 | 34264 ft | 388 kts | 310° |
| 2026-04-26 18:33 | 51.50989 | 18.93228 | 34264 ft | 388 kts | 310° |
| 2026-04-26 18:34 | 51.54600 | 18.86803 | 34261 ft | 387 kts | 310° |
| 2026-04-26 18:34 | 51.58197 | 18.80387 | 34260 ft | 386 kts | 310° |
| 2026-04-26 18:35 | 51.61759 | 18.74016 | 34264 ft | 384 kts | 310° |
| 2026-04-26 18:35 | 51.65327 | 18.67619 | 34245 ft | 383 kts | 310° |
| 2026-04-26 18:36 | 51.68886 | 18.61221 | 34262 ft | 382 kts | 310° |
| 2026-04-26 18:36 | 51.72433 | 18.54828 | 34271 ft | 383 kts | 310° |
| 2026-04-26 18:37 | 51.75984 | 18.48412 | 34273 ft | 384 kts | 310° |
| 2026-04-26 18:37 | 51.79540 | 18.41970 | 34274 ft | 385 kts | 310° |
| 2026-04-26 18:38 | 51.83090 | 18.35522 | 34285 ft | 386 kts | 310° |
| 2026-04-26 18:38 | 51.86664 | 18.29017 | 34252 ft | 387 kts | 310° |
| 2026-04-26 18:39 | 51.90233 | 18.22501 | 34271 ft | 387 kts | 310° |
| 2026-04-26 18:39 | 51.93808 | 18.15958 | 34278 ft | 388 kts | 310° |
| 2026-04-26 18:40 | 51.97388 | 18.09389 | 34284 ft | 388 kts | 310° |
| 2026-04-26 18:40 | 52.00945 | 18.02844 | 34281 ft | 389 kts | 310° |
| 2026-04-26 18:41 | 52.04520 | 17.96249 | 34286 ft | 389 kts | 310° |
| 2026-04-26 18:41 | 52.08096 | 17.89636 | 34278 ft | 389 kts | 310° |
| 2026-04-26 18:42 | 52.11666 | 17.83016 | 34286 ft | 389 kts | 309° |
| 2026-04-26 18:42 | 52.15232 | 17.76385 | 34290 ft | 390 kts | 309° |
| 2026-04-26 18:43 | 52.18803 | 17.69728 | 34290 ft | 390 kts | 309° |
| 2026-04-26 18:43 | 52.22373 | 17.63054 | 34283 ft | 390 kts | 309° |
| 2026-04-26 18:44 | 52.25940 | 17.56369 | 34291 ft | 391 kts | 309° |
| 2026-04-26 18:44 | 52.29487 | 17.49703 | 34285 ft | 391 kts | 309° |
| 2026-04-26 18:45 | 52.33052 | 17.42986 | 34286 ft | 391 kts | 309° |
| 2026-04-26 18:45 | 52.36616 | 17.36254 | 34290 ft | 391 kts | 309° |
| 2026-04-26 18:46 | 52.38399 | 17.32878 | 34185 ft | 393 kts | 309° |
| 2026-04-26 18:46 | 52.40194 | 17.29473 | 33884 ft | 393 kts | 309° |
| 2026-04-26 18:46 | 52.41956 | 17.26129 | 33625 ft | 391 kts | 309° |
| 2026-04-26 18:46 | 52.43734 | 17.22749 | 33348 ft | 392 kts | 309° |
| 2026-04-26 18:47 | 52.45517 | 17.19356 | 33082 ft | 393 kts | 309° |
| 2026-04-26 18:47 | 52.47299 | 17.15958 | 32807 ft | 394 kts | 309° |
| 2026-04-26 18:47 | 52.49089 | 17.12542 | 32549 ft | 395 kts | 309° |
| 2026-04-26 18:47 | 52.50880 | 17.09120 | 32314 ft | 396 kts | 309° |
| 2026-04-26 18:48 | 52.52666 | 17.05702 | 31855 ft | 392 kts | 309° |
| 2026-04-26 18:48 | 52.54432 | 17.02319 | 31415 ft | 386 kts | 309° |
| 2026-04-26 18:48 | 52.56173 | 16.98981 | 30930 ft | 383 kts | 309° |
| 2026-04-26 18:48 | 52.57896 | 16.95669 | 30460 ft | 379 kts | 309° |
| 2026-04-26 18:49 | 52.59600 | 16.92391 | 29924 ft | 375 kts | 309° |
| 2026-04-26 18:49 | 52.61285 | 16.89145 | 29441 ft | 370 kts | 309° |
| 2026-04-26 18:49 | 52.62922 | 16.85987 | 28970 ft | 365 kts | 309° |
| 2026-04-26 18:49 | 52.64562 | 16.82821 | 28490 ft | 361 kts | 309° |
| 2026-04-26 18:50 | 52.66183 | 16.79686 | 28032 ft | 356 kts | 309° |
| 2026-04-26 18:50 | 52.67780 | 16.76594 | 27543 ft | 353 kts | 309° |
| 2026-04-26 18:50 | 52.69366 | 16.73518 | 27101 ft | 349 kts | 309° |
| 2026-04-26 18:50 | 52.70933 | 16.70476 | 26637 ft | 346 kts | 309° |
| 2026-04-26 18:51 | 52.72485 | 16.67461 | 26200 ft | 343 kts | 309° |
| 2026-04-26 18:51 | 52.74027 | 16.64461 | 25741 ft | 341 kts | 309° |
| 2026-04-26 18:51 | 52.75558 | 16.61476 | 24900 ft | 349 kts | 309° |
| 2026-04-26 18:51 | 52.77139 | 16.58391 | 24230 ft | 353 kts | 309° |
| 2026-04-26 18:52 | 52.78721 | 16.55300 | 23654 ft | 352 kts | 309° |
| 2026-04-26 18:52 | 52.79789 | 16.53213 | 23304 ft | 350 kts | 309° |
| 2026-04-26 18:52 | 52.81860 | 16.49160 | 22642 ft | 345 kts | 309° |
| 2026-04-26 18:52 | 52.83398 | 16.46147 | 22189 ft | 341 kts | 309° |
| 2026-04-26 18:53 | 52.84917 | 16.43165 | 21737 ft | 337 kts | 309° |
| 2026-04-26 18:53 | 52.86420 | 16.40213 | 21304 ft | 334 kts | 310° |
| 2026-04-26 18:53 | 52.87906 | 16.37289 | 20854 ft | 331 kts | 310° |
| 2026-04-26 18:53 | 52.88884 | 16.35363 | 20547 ft | 329 kts | 310° |
| 2026-04-26 18:54 | 52.90843 | 16.31503 | 19970 ft | 325 kts | 310° |
| 2026-04-26 18:54 | 52.91809 | 16.29595 | 19684 ft | 324 kts | 310° |
| 2026-04-26 18:54 | 52.93718 | 16.25824 | 19124 ft | 321 kts | 310° |
| 2026-04-26 18:54 | 52.94686 | 16.23909 | 18836 ft | 320 kts | 310° |
| 2026-04-26 18:55 | 52.96097 | 16.21116 | 18393 ft | 318 kts | 310° |
| 2026-04-26 18:55 | 52.97511 | 16.18312 | 17925 ft | 316 kts | 310° |
| 2026-04-26 18:55 | 52.98918 | 16.15521 | 17474 ft | 314 kts | 310° |
| 2026-04-26 18:55 | 53.00313 | 16.12750 | 17053 ft | 311 kts | 310° |
| 2026-04-26 18:56 | 53.01697 | 16.09999 | 16633 ft | 309 kts | 310° |
| 2026-04-26 18:56 | 53.03074 | 16.07257 | 16218 ft | 307 kts | 310° |
| 2026-04-26 18:56 | 53.04437 | 16.04541 | 15809 ft | 305 kts | 310° |
| 2026-04-26 18:56 | 53.05789 | 16.01842 | 15407 ft | 303 kts | 310° |
| 2026-04-26 18:57 | 53.07134 | 15.99156 | 15005 ft | 302 kts | 310° |
| 2026-04-26 18:57 | 53.08021 | 15.97383 | 14741 ft | 301 kts | 310° |
| 2026-04-26 18:57 | 53.09806 | 15.93812 | 14186 ft | 299 kts | 310° |
| 2026-04-26 18:57 | 53.11134 | 15.91150 | 13751 ft | 298 kts | 310° |
| 2026-04-26 18:58 | 53.12443 | 15.88525 | 13371 ft | 297 kts | 310° |
| 2026-04-26 18:58 | 53.13750 | 15.85901 | 13331 ft | 294 kts | 310° |
| 2026-04-26 18:58 | 53.15047 | 15.83293 | 13292 ft | 289 kts | 310° |
| 2026-04-26 18:58 | 53.16310 | 15.80750 | 12938 ft | 281 kts | 310° |
| 2026-04-26 18:59 | 53.17560 | 15.78234 | 12070 ft | 287 kts | 310° |
| 2026-04-26 18:59 | 53.18848 | 15.75637 | 11414 ft | 287 kts | 310° |
| 2026-04-26 18:59 | 53.20097 | 15.73114 | 11294 ft | 279 kts | 310° |
| 2026-04-26 18:59 | 53.21329 | 15.70626 | 11183 ft | 276 kts | 311° |
| 2026-04-26 19:00 | 53.22553 | 15.68151 | 11051 ft | 275 kts | 311° |
| 2026-04-26 19:00 | 53.23762 | 15.65702 | 10926 ft | 270 kts | 311° |
| 2026-04-26 19:00 | 53.24938 | 15.63318 | 10803 ft | 261 kts | 311° |
| 2026-04-26 19:00 | 53.26064 | 15.61037 | 10692 ft | 253 kts | 311° |
| 2026-04-26 19:01 | 53.27176 | 15.58778 | 10584 ft | 245 kts | 311° |
| 2026-04-26 19:01 | 53.28228 | 15.56640 | 10481 ft | 237 kts | 311° |
| 2026-04-26 19:01 | 53.29261 | 15.54539 | 10367 ft | 230 kts | 311° |
| 2026-04-26 19:01 | 53.30258 | 15.52501 | 10159 ft | 225 kts | 309° |
| 2026-04-26 19:02 | 53.31167 | 15.50349 | 9759 ft | 226 kts | 306° |
| 2026-04-26 19:02 | 53.32051 | 15.48139 | 9289 ft | 228 kts | 306° |
| 2026-04-26 19:02 | 53.32927 | 15.45945 | 8830 ft | 229 kts | 306° |
| 2026-04-26 19:02 | 53.33526 | 15.44449 | 8511 ft | 230 kts | 305° |
| 2026-04-26 19:03 | 53.34713 | 15.41499 | 7911 ft | 231 kts | 305° |
| 2026-04-26 19:03 | 53.35616 | 15.39257 | 7373 ft | 235 kts | 305° |
| 2026-04-26 19:03 | 53.36547 | 15.36950 | 6768 ft | 240 kts | 304° |
| 2026-04-26 19:03 | 53.37479 | 15.34637 | 6191 ft | 237 kts | 304° |
| 2026-04-26 19:04 | 53.38381 | 15.32396 | 5838 ft | 226 kts | 304° |
| 2026-04-26 19:04 | 53.39238 | 15.30266 | 5537 ft | 216 kts | 304° |
| 2026-04-26 19:04 | 53.40070 | 15.28195 | 5272 ft | 214 kts | 304° |
| 2026-04-26 19:04 | 53.40902 | 15.26127 | 5013 ft | 213 kts | 304° |
| 2026-04-26 19:05 | 53.42534 | 15.22060 | 4490 ft | 210 kts | 304° |
| 2026-04-26 19:05 | 53.43345 | 15.20037 | 4231 ft | 209 kts | 304° |
| 2026-04-26 19:05 | 53.44163 | 15.17998 | 3985 ft | 211 kts | 304° |
| 2026-04-26 19:06 | 53.45043 | 15.16057 | 3716 ft | 206 kts | 310° |
| 2026-04-26 19:06 | 53.45976 | 15.14275 | 3462 ft | 200 kts | 311° |
| 2026-04-26 19:06 | 53.46886 | 15.12550 | 3219 ft | 195 kts | 311° |
| 2026-04-26 19:06 | 53.47777 | 15.10869 | 2974 ft | 190 kts | 311° |
| 2026-04-26 19:07 | 53.48647 | 15.09275 | 2745 ft | 185 kts | 313° |
| 2026-04-26 19:07 | 53.49502 | 15.07690 | 2525 ft | 180 kts | 311° |
| 2026-04-26 19:07 | 53.50313 | 15.06124 | 2336 ft | 174 kts | 311° |
| 2026-04-26 19:07 | 53.51093 | 15.04602 | 2227 ft | 173 kts | 311° |
| 2026-04-26 19:08 | 53.51886 | 15.03055 | 1981 ft | 172 kts | 311° |
| 2026-04-26 19:08 | 53.52639 | 15.01583 | 1767 ft | 159 kts | 312° |
| 2026-04-26 19:08 | 53.53339 | 15.00218 | 1531 ft | 149 kts | 312° |
| 2026-04-26 19:08 | 53.54013 | 14.98905 | 1328 ft | 149 kts | 312° |
| 2026-04-26 19:09 | 53.54681 | 14.97603 | 1113 ft | 148 kts | 312° |
| 2026-04-26 19:09 | 53.55351 | 14.96296 | 914 ft | 149 kts | 312° |
| 2026-04-26 19:09 | 53.56028 | 14.94977 | 706 ft | 151 kts | 312° |
| 2026-04-26 19:09 | 53.56721 | 14.93630 | 528 ft | 152 kts | 311° |
| 2026-04-26 19:10 | 53.57416 | 14.92274 | 296 ft | 153 kts | 310° |
| 2026-04-26 19:10 | 53.58092 | 14.90965 | 158 ft | 138 kts | 311° |
| 2026-04-26 19:10 | 53.58623 | 14.89931 | 147 ft | 92 kts | 310° |
| 2026-04-26 19:10 | 53.58912 | 14.89369 | 137 ft | 46 kts | 311° |
| 2026-04-26 19:11 | 53.59038 | 14.89135 | 134 ft | 9 kts | 324° |
| 2026-04-26 19:11 | 53.59102 | 14.89157 | 128 ft | 12 kts | 41° |
| 2026-04-26 19:11 | 53.59147 | 14.89226 | 130 ft | 0 kts | 42° |
| 2026-04-26 19:12 | 53.59151 | 14.89233 | 131 ft | 2 kts | 45° |
| 2026-04-26 19:13 | 53.59163 | 14.89279 | 130 ft | 6 kts | 82° |
| 2026-04-26 19:13 | 53.59146 | 14.89341 | 132 ft | 6 kts | 130° |
| 2026-04-26 19:13 | 53.59118 | 14.89391 | 132 ft | 6 kts | 132° |
| 2026-04-26 19:13 | 53.59106 | 14.89451 | 133 ft | 5 kts | 75° |
| 2026-04-26 19:14 | 53.59126 | 14.89491 | 133 ft | 4 kts | 43° |
| 2026-04-26 19:14 | 53.59147 | 14.89522 | 133 ft | 4 kts | 41° |
| 2026-04-26 19:14 | 53.59167 | 14.89552 | 133 ft | 4 kts | 39° |
| 2026-04-26 19:14 | 53.59183 | 14.89563 | 133 ft | 4 kts | 11° |
| 2026-04-26 19:15 | 53.59212 | 14.89540 | 132 ft | 2 kts | 314° |
| 2026-04-26 19:15 | 53.59218 | 14.89529 | 132 ft | 0 kts | 310° |